Flight Track Log - Related Links

Times and Time Zones

All times are in EDT time to prevent confusion due to time zone crossing. See the RPA3228 flight status page for this flight to view local times or setup timezone preferences in your user account.

Time Position Orientation Groundspeed Altitude Reporting Facility
EDT Latitude Longitude Course Direction KTS MPH feet Rate Location/Type
Tue 07:40:46 AM 36.1333 -86.6833 56° Northeast 148 170 1,200  Level Nashville TRACON
Tue 07:41:40 AM 36.1500 -86.7333 292° West 180 207 3,200 2,450 Climbing Nashville TRACON
Tue 07:42:46 AM 36.2000 -86.6667 47° Northeast 273 314 6,100 2,679 Climbing Nashville TRACON
Tue 07:43:00 AM 36.2504 -86.2998 64° Northeast  Level Estimated
Tue 07:44:00 AM 36.2921 -86.1734 64° Northeast  Level Estimated
Tue 07:44:28 AM 36.1950 -86.5172 92° East 305 351 10,700  Level Memphis Center
Tue 07:45:00 AM 36.3336 -86.0469 68° East  Level Estimated
Tue 07:45:28 AM 36.1958 -86.4092 89° East 313 360 13,000  Level Memphis Center
Tue 07:46:00 AM 36.3751 -85.9203 56° Northeast  Level Estimated
Tue 07:46:28 AM 36.1983 -86.2933 88° East 328 377 15,400  Level Memphis Center
Tue 07:47:28 AM 36.2003 -86.1622 89° East 333 383 17,500 2,000 Climbing Memphis Center
Tue 07:48:28 AM 36.2125 -86.0381 83° East 353 406 19,400 1,850 Climbing Memphis Center
Tue 07:49:28 AM 36.2650 -85.9244 60° Northeast 359 413 21,200 1,765 Climbing Memphis Center
Tue 07:50:10 AM 36.2950 -85.8558 62° Northeast 379 436 22,400 1,615 Climbing Indianapolis Center
Tue 07:51:12 AM 36.3481 -85.7425 60° Northeast 383 441 24,000 1,561 Climbing Indianapolis Center
Tue 07:52:13 AM 36.4039 -85.6256 59° Northeast 388 447 25,600 1,707 Climbing Indianapolis Center
Tue 07:53:15 AM 36.4597 -85.5058 60° Northeast 395 455 27,500 2,049 Climbing Indianapolis Center
Tue 07:54:16 AM 36.5275 -85.3631 59° Northeast 398 458 29,800 1,707 Climbing Indianapolis Center
Tue 07:55:18 AM 36.5847 -85.2433 59° Northeast 400 460 31,000 585 Climbing Indianapolis Center
Tue 07:56:19 AM 36.6328 -85.1217 64° Northeast 393 452 31,000  Level Indianapolis Center
Tue 07:57:21 AM 36.6711 -84.9933 70° East 394 453 31,000  Level Indianapolis Center
Tue 07:58:22 AM 36.7100 -84.8653 69° East 393 452 31,000  Level Indianapolis Center
Tue 07:59:24 AM 36.7494 -84.7369 69° East 394 453 31,000  Level Indianapolis Center
Tue 08:00:26 AM 36.7883 -84.6075 69° East 396 456 31,000  Level Indianapolis Center
Tue 08:01:27 AM 36.8261 -84.4817 69° East 395 455 31,000  Level Indianapolis Center
Tue 08:02:29 AM 36.8711 -84.3319 69° East 394 453 31,000  Level Indianapolis Center
Tue 08:03:30 AM 36.9114 -84.2033 69° East 396 456 31,000  Level Indianapolis Center
Tue 08:04:32 AM 36.9486 -84.0722 70° East 399 459 31,000  Level Indianapolis Center
Tue 08:05:33 AM 36.9881 -83.9436 69° East 396 456 31,000  Level Indianapolis Center
Tue 08:06:35 AM 37.0275 -83.8125 69° East 401 461 31,000  Level Indianapolis Center
Tue 08:07:36 AM 37.0664 -83.6811 70° East 404 465 31,000  Level Indianapolis Center
Tue 08:08:38 AM 37.1061 -83.5494 69° East 404 465 31,000  Level Indianapolis Center
Tue 08:09:39 AM 37.1433 -83.4172 71° East 403 464 31,000  Level Indianapolis Center
Tue 08:10:41 AM 37.1872 -83.2642 70° East 401 461 31,000  Level Indianapolis Center
Tue 08:11:42 AM 37.2256 -83.1328 70° East 398 458 31,000  Level Indianapolis Center
Tue 08:12:44 AM 37.2639 -83.0006 70° East 400 460 31,000  Level Indianapolis Center
Tue 08:13:46 AM 37.3003 -82.8694 71° East 396 456 31,000  Level Indianapolis Center
Tue 08:14:47 AM 37.3372 -82.7400 70° East 394 453 31,000  Level Indianapolis Center
Tue 08:15:49 AM 37.3747 -82.6094 70° East 394 453 31,000  Level Indianapolis Center
Tue 08:16:50 AM 37.4103 -82.4806 71° East 391 450 31,000  Level Indianapolis Center
Tue 08:17:52 AM 37.4469 -82.3508 70° East 392 451 31,000  Level Indianapolis Center
Tue 08:18:54 AM 37.4836 -82.2222 70° East 391 450 31,000  Level Indianapolis Center
Tue 08:19:55 AM 37.5244 -82.0697 71° East 393 452 31,000  Level Indianapolis Center
Tue 08:20:57 AM 37.5614 -81.9386 70° East 396 456 31,000  Level Indianapolis Center
Tue 08:21:59 AM 37.5972 -81.8081 71° East 395 455 31,000  Level Indianapolis Center
Tue 08:23:00 AM 37.6322 -81.6767 71° East 395 455 31,000  Level Indianapolis Center
Tue 08:24:02 AM 37.6681 -81.5450 71° East 396 456 31,000  Level Indianapolis Center
Tue 08:25:04 AM 37.7047 -81.4069 71° East 393 452 31,000  Level Indianapolis Center
Tue 08:26:05 AM 37.7386 -81.2792 71° East 394 453 31,000  Level Indianapolis Center
Tue 08:27:07 AM 37.7731 -81.1519 71° East 394 453 31,000  Level Indianapolis Center
Tue 08:28:09 AM 37.8231 -81.0058 67° East 397 457 31,000  Level Indianapolis Center
Tue 08:29:11 AM 37.8681 -80.8775 66° East 399 459 31,000  Level Indianapolis Center
Tue 08:30:12 AM 37.9119 -80.7522 66° East 393 452 31,000  Level Indianapolis Center
Tue 08:31:14 AM 37.9561 -80.6264 66° East 392 451 31,000  Level Indianapolis Center
Tue 08:32:09 AM 37.9969 -80.5169 65° Northeast 390 449 31,000  Level Washington Center
Tue 08:33:10 AM 38.0439 -80.3908 65° Northeast 390 449 31,000  Level Washington Center
Tue 08:34:08 AM 38.0864 -80.2667 66° East 390 449 31,000  Level Washington Center
Tue 08:35:08 AM 38.1331 -80.1378 65° Northeast 390 449 31,000  Level Washington Center
Tue 08:36:08 AM 38.1819 -80.0006 66° East 390 449 31,000  Level Washington Center
Tue 08:37:09 AM 38.2264 -79.8711 66° East 390 449 31,000  Level Washington Center
Tue 08:38:10 AM 38.2703 -79.7467 66° East 390 449 31,000 -508 Level Washington Center
Tue 08:39:07 AM 38.3142 -79.6194 66° East 390 449 30,000 -1,525 Descending Washington Center
Tue 08:40:08 AM 38.3556 -79.5025 66° East 390 449 28,000 -2,033 Descending Washington Center
Tue 08:41:08 AM 38.3994 -79.3750 66° East 390 449 25,900 -1,488 Descending Washington Center
Tue 08:42:09 AM 38.4369 -79.2417 70° East 390 449 25,000 -443 Descending Washington Center
Tue 08:43:10 AM 38.4619 -79.0944 78° East 397 457 25,000  Level Washington Center
Tue 08:44:10 AM 38.4869 -78.9497 78° East 409 471 25,000  Level Washington Center
Tue 08:45:10 AM 38.5103 -78.7864 80° East 423 487 25,000 -1,068 Level Washington Center
Tue 08:46:08 AM 38.5328 -78.6414 79° East 428 493 22,900 -1,627 Descending Washington Center
Tue 08:47:08 AM 38.5550 -78.5042 78° East 407 468 21,800 -1,041 Descending Washington Center
Tue 08:48:09 AM 38.5769 -78.3694 78° East 396 456 20,800 -1,525 Descending Washington Center
Tue 08:49:10 AM 38.6031 -78.2322 76° East 391 450 18,700 -1,815 Descending Washington Center
Tue 08:50:08 AM 38.6411 -78.1089 68° East 386 444 17,200 -1,664 Descending Washington Center
Tue 08:51:09 AM 38.6811 -77.9850 67° East 379 436 15,400 -1,721 Descending Washington Center
Tue 08:52:10 AM 38.7189 -77.8692 67° East 361 415 13,700 -1,664 Descending Washington Center
Tue 08:53:08 AM 38.7706 -77.7697 56° Northeast 338 389 12,100 -1,424 Descending Washington Center
Tue 08:54:08 AM 38.8264 -77.6914 48° Northeast 316 364 10,900 -1,289 Descending Washington Center
Tue 08:55:09 AM 38.8819 -77.6103 49° Northeast 298 343 9,500 -1,279 Descending Washington Center
Tue 08:56:10 AM 38.9311 -77.5369 49° Northeast 298 343 8,300 -1,261 Descending Washington Center
Tue 08:57:08 AM 38.9658 -77.4444 64° Northeast 287 330 7,000 -629 Descending Washington Center
Tue 08:58:14 AM 38.9167 -77.3500 124° Southeast 269 310 7,000  Level Potomac TRACON
Tue 08:59:20 AM 38.8667 -77.2833 134° Southeast 222 255 7,000 -190 Level Potomac TRACON
Tue 09:00:20 AM 38.8667 -77.2167 90° East 233 268 6,600 -474 Descending Potomac TRACON
Tue 09:01:14 AM 38.9000 -77.2167 360° North 211 243 6,100 -684 Descending Potomac TRACON
Tue 09:02:14 AM 38.9333 -77.2833 303° West 196 226 5,300 -550 Descending Potomac TRACON
Tue 09:03:14 AM 38.9833 -77.3333 322° Northwest 197 227 5,000 -158 Descending Potomac TRACON
Tue 09:04:08 AM 39.0167 -77.3500 339° North 216 249 5,000  Level Potomac TRACON
Tue 09:05:08 AM 39.0500 -77.2833 57° Northeast 219 252 5,000 -316 Level Potomac TRACON
Tue 09:06:02 AM 39.0167 -77.2167 123° Southeast 219 252 4,400 -684 Descending Potomac TRACON
Tue 09:07:02 AM 38.9833 -77.1667 131° Southeast 186 214 3,700 -1,050 Descending Potomac TRACON
Tue 09:08:02 AM 38.9500 -77.1167 131° Southeast 183 211 2,300 -1,100 Descending Potomac TRACON
Tue 09:09:02 AM 38.9167 -77.0833 142° Southeast 154 177 1,500 -632 Descending Potomac TRACON
Tue 09:09:56 AM 38.8833 -77.0500 142° Southeast 126 145 1,100 -444 Descending Potomac TRACON

Login

Don't have an account? Register now (free) for customized features, flight alerts, and more!